Bretagne — FNBR — position and weather

sailwx.info

Track history (hours):
 
Tides and Currents Weather Stations Pressure Air Temp Water Temp Dewpoint Dewpoint Depression Visibility Wind Speed Wind Dir Waves Ship Positions

Bretagne

Operator: Brittany Ferries

Last reported at 2019-Oct-17 16:00 UTC. Time now 2019-Oct-17 16:23 UTC.
Position N 50°38' W 001°06'.

Length 151 m; beam 27 m.

Type: Ship. MMSI: 227286000.

Date/timePositionNaut miles runAvg speedWind from/ knotsBaromVisibWave heightAir tempDewpointWater temp
2019-Oct-17 16:00N 50°38' W 001°06'713.8
2019-Oct-17 15:30N 50°32' W 001°13'815.4
2019-Oct-17 14:59N 50°26' W 001°21'816.5
2019-Oct-17 14:30N 50°20' W 001°29'917.6
2019-Oct-17 14:00N 50°14' W 001°39'918.4
2019-Oct-17 13:31N 50°05' W 001°44'918.3
2019-Oct-17 13:00N 49°58' W 001°52'918.8
2019-Oct-17 12:30N 49°49' W 001°59'1018.2
2019-Oct-17 11:57N 49°40' W 002°02'919.3
2019-Oct-17 11:30N 49°31' W 001°60'21 2.5
2019-Oct-17 02:57N 49°15' W 002°22'512.6
2019-Oct-17 02:31N 49°20' W 002°20'815.8
2019-Oct-17 02:01N 49°27' W 002°14'1218.1
2019-Oct-17 01:20N 49°39' W 002°07'719.6
2019-Oct-17 01:00N 49°45' W 002°02'817.0
2019-Oct-17 00:30N 49°51' W 001°54'815.8
2019-Oct-17 00:01N 49°57' W 001°47'715.0
2019-Oct-16 23:31N 50°04' W 001°41'714.3
2019-Oct-16 23:00N 50°10' W 001°36'713.4
2019-Oct-16 22:30N 50°16' W 001°30'713.0
2019-Oct-16 22:00N 50°21' W 001°24'712.7
2019-Oct-16 21:27N 50°26' W 001°17'613.0
2019-Oct-16 21:00N 50°31' W 001°12'612.5
2019-Oct-16 20:30N 50°36' W 001°07'612.0
2019-Oct-16 20:01N 50°42' W 001°03'611.3
2019-Oct-16 19:30N 50°47' W 001°06'2 3.2
2019-Oct-16 18:58N 50°49' W 001°06'0 0.0
2019-Oct-16 18:28N 50°49' W 001°06'0 0.0
2019-Oct-16 17:59N 50°49' W 001°06'0 0.0
2019-Oct-16 17:29N 50°49' W 001°06'0 0.0
2019-Oct-16 16:59N 50°49' W 001°06'0 0.0
2019-Oct-16 16:28N 50°49' W 001°06'0 0.0
2019-Oct-16 15:58N 50°49' W 001°06'0 0.0
2019-Oct-16 15:28N 50°49' W 001°06'0 0.0
2019-Oct-16 14:59N 50°49' W 001°06'0 0.0
2019-Oct-16 14:28N 50°49' W 001°06'0 0.0
2019-Oct-16 13:58N 50°49' W 001°06'0 0.0
2019-Oct-16 13:28N 50°49' W 001°06'0 0.0
2019-Oct-16 12:59N 50°49' W 001°06'0 0.0
2019-Oct-16 12:28N 50°49' W 001°06'0 0.0
2019-Oct-16 11:58N 50°49' W 001°06'0 0.0
2019-Oct-16 11:28N 50°49' W 001°06'0 0.0
2019-Oct-16 10:56N 50°49' W 001°06'0 0.0
2019-Oct-16 10:28N 50°49' W 001°06'0 0.0
2019-Oct-16 09:59N 50°49' W 001°06'0 0.0
2019-Oct-16 09:28N 50°49' W 001°06'0 0.0
2019-Oct-16 08:56N 50°49' W 001°06'0 0.0
2019-Oct-16 08:29N 50°49' W 001°06'0 0.0
2019-Oct-16 07:58N 50°49' W 001°06'0 0.0
2019-Oct-16 07:29N 50°49' W 001°06'0 0.0
2019-Oct-16 06:59N 50°49' W 001°06'0 0.7
2019-Oct-16 06:31N 50°49' W 001°06'5 9.7
2019-Oct-16 06:01N 50°44' W 001°04'611.3
2019-Oct-16 05:31N 50°39' W 000°59'714.2
2019-Oct-16 05:00N 50°34' W 001°06'714.0
2019-Oct-16 04:30N 50°28' W 001°13'713.5
2019-Oct-16 04:00N 50°23' W 001°20'713.6
2019-Oct-16 03:30N 50°18' W 001°27'713.6
2019-Oct-16 03:01N 50°13' W 001°33'612.3
2019-Oct-16 02:30N 50°08' W 001°39'612.2
2019-Oct-16 02:01N 50°03' W 001°44'612.6
2019-Oct-16 01:30N 49°57' W 001°50'613.0
2019-Oct-16 01:00N 49°52' W 001°55'713.1
2019-Oct-16 00:30N 49°47' W 002°01'810.2
2019-Oct-15 23:45N 49°40' W 002°06'310.4
2019-Oct-15 23:29N 49°37' W 002°08'711.6
2019-Oct-15 22:54N 49°31' W 002°12'512.8
2019-Oct-15 22:30N 49°26' W 002°15'612.8
2019-Oct-15 22:00N 49°21' W 002°19'6 0.3
2019-Oct-15 03:12N 49°15' W 002°21'312.7
2019-Oct-15 02:57N 49°18' W 002°20'612.9
2019-Oct-15 02:30N 49°23' W 002°17'713.8
2019-Oct-15 02:00N 49°29' W 002°12'714.2
2019-Oct-15 01:29N 49°36' W 002°08'916.2
2019-Oct-15 00:57N 49°44' W 002°02'715.0
2019-Oct-15 00:30N 49°49' W 001°56'713.0
2019-Oct-15 00:01N 49°55' W 001°50'713.9
2019-Oct-14 23:30N 50°00' W 001°44'816.0
2019-Oct-14 23:01N 50°07' W 001°37'815.3
2019-Oct-14 22:31N 50°13' W 001°31'714.8
2019-Oct-14 22:01N 50°20' W 001°24'914.5
2019-Oct-14 21:23N 50°27' W 001°17'513.8
2019-Oct-14 21:00N 50°32' W 001°12'613.1
2019-Oct-14 20:31N 50°37' W 001°07'611.3
2019-Oct-14 20:01N 50°42' W 001°03'612.7
2019-Oct-14 19:30N 50°48' W 001°07'1 1.7
2019-Oct-14 18:58N 50°49' W 001°06'0 0.0
2019-Oct-14 18:28N 50°49' W 001°06'0 0.0
2019-Oct-14 17:58N 50°49' W 001°06'0 0.0
2019-Oct-14 17:30N 50°49' W 001°06'3 5.4
2019-Oct-14 17:00N 50°46' W 001°05'714.4
2019-Oct-14 16:30N 50°40' W 000°58'917.5
2019-Oct-14 16:00N 50°33' W 001°05'917.5
2019-Oct-14 15:30N 50°26' W 001°14'917.8
2019-Oct-14 15:01N 50°19' W 001°23'917.4
2019-Oct-14 14:30N 50°12' W 001°31'817.0
2019-Oct-14 14:00N 50°05' W 001°39'816.9
2019-Oct-14 13:30N 49°59' W 001°46'917.0
2019-Oct-14 13:00N 49°52' W 001°54'816.2
2019-Oct-14 12:30N 49°45' W 002°02'815.0
2019-Oct-14 12:00N 49°38' W 002°07'1018.0
2019-Oct-14 11:28N 49°29' W 002°12'919.0
2019-Oct-14 11:00N 49°22' W 002°18'7 0.9
2019-Oct-14 03:00N 49°15' W 002°21'611.9
2019-Oct-14 02:30N 49°20' W 002°19'612.7
2019-Oct-14 02:00N 49°26' W 002°13'813.7
2019-Oct-14 01:25N 49°33' W 002°09'615.3
2019-Oct-14 01:00N 49°39' W 002°06'917.0
2019-Oct-14 00:30N 49°47' W 002°00'714.7
2019-Oct-14 00:01N 49°53' W 001°53'816.0
2019-Oct-13 23:31N 49°58' W 001°45'816.6
2019-Oct-13 23:01N 50°05' W 001°38'816.0
2019-Oct-13 22:30N 50°12' W 001°32'815.5
2019-Oct-13 22:00N 50°19' W 001°25'815.0
2019-Oct-13 21:30N 50°25' W 001°18'714.4
2019-Oct-13 21:00N 50°31' W 001°13'713.7
2019-Oct-13 20:30N 50°37' W 001°07'612.0
2019-Oct-13 20:01N 50°43' W 001°03'612.1
2019-Oct-13 19:30N 50°48' W 001°07'1 1.6
2019-Oct-13 18:58N 50°49' W 001°06'0 0.0
2019-Oct-13 18:28N 50°49' W 001°06'0 0.0
2019-Oct-13 17:58N 50°49' W 001°06'0 0.0
2019-Oct-13 17:31N 50°49' W 001°06'3 6.2
2019-Oct-13 17:00N 50°46' W 001°05'713.4
2019-Oct-13 16:30N 50°40' W 000°60'918.5
2019-Oct-13 16:00N 50°32' W 001°08'1018.5
2019-Oct-13 15:29N 50°25' W 001°18'918.1
2019-Oct-13 15:00N 50°19' W 001°27'918.0
2019-Oct-13 14:30N 50°11' W 001°34'917.1
2019-Oct-13 14:01N 50°04' W 001°43'816.9
2019-Oct-13 13:30N 49°57' W 001°48'816.9
2019-Oct-13 13:01N 49°50' W 001°56'1215.0
2019-Oct-13 12:11N 49°40' W 002°06'416.6
2019-Oct-13 11:57N 49°36' W 002°09'818.0
2019-Oct-13 11:30N 49°29' W 002°13'918.7
2019-Oct-13 11:00N 49°20' W 002°20'5 0.7
2019-Oct-13 03:05N 49°15' W 002°21'311.7
2019-Oct-13 02:50N 49°18' W 002°20'411.5
2019-Oct-13 02:31N 49°21' W 002°18'712.6
2019-Oct-13 01:59N 49°27' W 002°14'713.3
2019-Oct-13 01:28N 49°34' W 002°10'1215.1
2019-Oct-13 00:39N 49°45' W 002°02'215.9
2019-Oct-13 00:30N 49°47' W 002°00'714.9
2019-Oct-13 00:00N 49°53' W 001°54'816.8
2019-Oct-12 23:31N 49°60' W 001°46'917.6
2019-Oct-12 23:01N 50°07' W 001°38'817.0
2019-Oct-12 22:31N 50°14' W 001°30'816.4
2019-Oct-12 22:01N 50°20' W 001°23'915.7
2019-Oct-12 21:27N 50°27' W 001°14'614.0
2019-Oct-12 21:00N 50°33' W 001°11'714.5
2019-Oct-12 20:30N 50°39' W 001°05'510.9
2019-Oct-12 20:01N 50°45' W 001°05'4 8.0
2019-Oct-12 19:31N 50°48' W 001°07'1 1.4
2019-Oct-12 18:58N 50°49' W 001°06'0 0.0
2019-Oct-12 18:28N 50°49' W 001°06'0 0.0
2019-Oct-12 17:58N 50°49' W 001°06'0 0.0
2019-Oct-12 17:30N 50°49' W 001°06'2 4.4
2019-Oct-12 17:00N 50°47' W 001°06'714.1
2019-Oct-12 16:30N 50°41' W 000°59'816.6
2019-Oct-12 16:01N 50°34' W 001°06'918.8
2019-Oct-12 15:31N 50°27' W 001°15'918.5
2019-Oct-12 15:01N 50°19' W 001°23'918.1
2019-Oct-12 14:30N 50°12' W 001°31'917.3
2019-Oct-12 14:00N 50°05' W 001°40'816.9
2019-Oct-12 13:31N 49°58' W 001°48'816.7
2019-Oct-12 13:00N 49°52' W 001°55'815.9
2019-Oct-12 12:30N 49°45' W 002°02'714.5
2019-Oct-12 12:00N 49°38' W 002°06'916.9
2019-Oct-12 11:27N 49°29' W 002°12'817.7
2019-Oct-12 11:00N 49°23' W 002°18'28 4.2
2019-Oct-12 04:25N 48°55' W 002°21'2516.0
2019-Oct-12 02:51N 49°20' W 002°30'411.1
2019-Oct-12 02:30N 49°23' W 002°27'814.8
2019-Oct-12 01:59N 49°25' W 002°15'712.7
2019-Oct-12 01:25N 49°31' W 002°10'512.4
2019-Oct-12 01:00N 49°36' W 002°06'914.5
2019-Oct-12 00:22N 49°45' W 002°02'617.8
2019-Oct-12 00:00N 49°50' W 001°57'917.0
2019-Oct-11 23:30N 49°57' W 001°48'817.0
2019-Oct-11 23:00N 50°03' W 001°39'816.3
2019-Oct-11 22:31N 50°09' W 001°31'815.7
2019-Oct-11 22:00N 50°16' W 001°24'815.2
2019-Oct-11 21:30N 50°23' W 001°19'815.5
2019-Oct-11 21:00N 50°29' W 001°13'816.2
2019-Oct-11 20:31N 50°37' W 001°07'713.7
2019-Oct-11 20:00N 50°42' W 001°02'713.5
2019-Oct-11 19:31N 50°48' W 001°07'1 1.6
2019-Oct-11 18:58N 50°49' W 001°06'0 0.0
2019-Oct-11 18:28N 50°49' W 001°06'0 0.0
2019-Oct-11 17:58N 50°49' W 001°06'0 0.0
2019-Oct-11 17:28N 50°49' W 001°06'1 2.0
2019-Oct-11 17:00N 50°48' W 001°07'713.0
2019-Oct-11 16:30N 50°43' W 001°00'815.6
2019-Oct-11 16:00N 50°35' W 001°01'1019.7
2019-Oct-11 15:30N 50°28' W 001°11'1019.2
2019-Oct-11 15:00N 50°20' W 001°20'918.5
2019-Oct-11 14:30N 50°12' W 001°28'917.8
2019-Oct-11 14:00N 50°06' W 001°38'917.8
2019-Oct-11 13:30N 49°59' W 001°47'917.5
2019-Oct-11 13:01N 49°52' W 001°54'816.6
2019-Oct-11 12:30N 49°45' W 002°02'814.9
2019-Oct-11 11:59N 49°38' W 002°07'917.0
2019-Oct-11 11:28N 49°30' W 002°12'818.0
2019-Oct-11 11:00N 49°23' W 002°17'1318.4
2019-Oct-11 10:18N 49°10' W 002°22'919.9
2019-Oct-11 09:52N 49°01' W 002°22'1119.6
2019-Oct-11 09:19N 48°51' W 002°16'10 2.8
2019-Oct-11 05:34N 48°43' W 002°07'217.7
2019-Oct-11 05:27N 48°45' W 002°08'3413.1
2019-Oct-11 02:53N 49°16' W 002°26'512.9
2019-Oct-11 02:30N 49°21' W 002°25'714.4
2019-Oct-11 02:00N 49°25' W 002°15'1516.4
2019-Oct-11 01:04N 49°39' W 002°06'718.3
2019-Oct-11 00:40N 49°46' W 002°02'318.3
2019-Oct-11 00:30N 49°48' W 001°58'917.6
2019-Oct-11 00:00N 49°54' W 001°48'816.8
2019-Oct-10 23:30N 49°60' W 001°39'815.5
2019-Oct-10 23:01N 50°07' W 001°35'815.2
2019-Oct-10 22:30N 50°14' W 001°30'714.7
2019-Oct-10 22:00N 50°20' W 001°24'814.3
2019-Oct-10 21:26N 50°27' W 001°18'614.2
2019-Oct-10 21:00N 50°32' W 001°12'714.1
2019-Oct-10 20:30N 50°38' W 001°06'611.5
2019-Oct-10 20:00N 50°44' W 001°03'611.2
2019-Oct-10 19:31N 50°49' W 001°07'1 1.6
2019-Oct-10 19:00N 50°49' W 001°06'0 0.0
2019-Oct-10 18:29N 50°49' W 001°06'0 0.0
2019-Oct-10 17:59N 50°49' W 001°06'0 0.0
2019-Oct-10 17:29N 50°49' W 001°06'1 1.8
2019-Oct-10 17:00N 50°48' W 001°07'611.5
2019-Oct-10 16:30N 50°43' W 001°03'714.7
2019-Oct-10 16:00N 50°37' W 001°07'1019.1
2019-Oct-10 15:30N 50°29' W 001°16'919.0
2019-Oct-10 15:00N 50°21' W 001°24'1019.2
2019-Oct-10 14:30N 50°12' W 001°32'918.8
2019-Oct-10 14:00N 50°05' W 001°41'918.4
2019-Oct-10 13:30N 49°57' W 001°49'918.2
2019-Oct-10 13:00N 49°50' W 001°57'1216.6
2019-Oct-10 12:16N 49°39' W 002°07'416.8
2019-Oct-10 12:00N 49°35' W 002°09'917.6
2019-Oct-10 11:30N 49°27' W 002°14'917.5
2019-Oct-10 11:00N 49°19' W 002°20'7 0.9
2019-Oct-10 03:08N 49°17' W 002°31'217.6
2019-Oct-10 03:00N 49°19' W 002°32'5 9.7
2019-Oct-10 02:30N 49°23' W 002°26'714.9
2019-Oct-10 02:00N 49°25' W 002°15'815.1
2019-Oct-10 01:27N 49°33' W 002°10'1316.8
2019-Oct-10 00:39N 49°45' W 002°00'319.8
2019-Oct-10 00:31N 49°46' W 001°57'917.3
2019-Oct-10 00:01N 49°55' W 001°53'917.1
2019-Oct-09 23:30N 50°03' W 001°52'917.1
2019-Oct-09 23:00N 50°12' W 001°50'917.5
2019-Oct-09 22:30N 50°20' W 001°48'917.4
2019-Oct-09 22:00N 50°29' W 001°44'1215.1
2019-Oct-09 21:14N 50°33' W 001°27'916.9
2019-Oct-09 20:42N 50°33' W 001°13'316.4
2019-Oct-09 20:30N 50°35' W 001°09'815.6
2019-Oct-09 20:00N 50°42' W 001°02'713.3
2019-Oct-09 19:30N 50°47' W 001°07'1 2.7
2019-Oct-09 19:00N 50°49' W 001°06'0 0.0
2019-Oct-09 18:29N 50°49' W 001°06'0 0.0
2019-Oct-09 17:59N 50°49' W 001°06'0 0.0
2019-Oct-09 17:29N 50°49' W 001°06'0 0.0
2019-Oct-09 16:59N 50°49' W 001°06'0 0.0
2019-Oct-09 16:29N 50°49' W 001°06'0 0.0
2019-Oct-09 15:59N 50°49' W 001°06'0 0.0
2019-Oct-09 15:29N 50°49' W 001°06'0 0.0
2019-Oct-09 14:59N 50°49' W 001°06'0 0.0
2019-Oct-09 14:29N 50°49' W 001°06'0 0.0
2019-Oct-09 13:59N 50°49' W 001°06'0 0.0
2019-Oct-09 13:29N 50°49' W 001°06'0 0.0
2019-Oct-09 12:59N 50°49' W 001°06'0 0.0
2019-Oct-09 12:29N 50°49' W 001°06'0 0.0
2019-Oct-09 11:59N 50°49' W 001°06'0 0.0
2019-Oct-09 11:29N 50°49' W 001°06'0 0.0
2019-Oct-09 10:59N 50°49' W 001°06'0 0.0
2019-Oct-09 10:29N 50°49' W 001°06'0 0.0
2019-Oct-09 09:59N 50°49' W 001°06'0 0.0
2019-Oct-09 09:29N 50°49' W 001°06'0 0.0
2019-Oct-09 08:59N 50°49' W 001°06'0 0.0
2019-Oct-09 08:29N 50°49' W 001°06'0 0.0
2019-Oct-09 07:59N 50°49' W 001°06'0 0.0
2019-Oct-09 07:29N 50°49' W 001°06'0 0.0
2019-Oct-09 06:59N 50°49' W 001°06'0 0.5
2019-Oct-09 06:31N 50°49' W 001°06'5 9.3
2019-Oct-09 06:00N 50°44' W 001°04'612.3
2019-Oct-09 05:30N 50°38' W 001°06'816.1
2019-Oct-09 05:00N 50°31' W 001°12'816.1
2019-Oct-09 04:30N 50°25' W 001°20'816.0
2019-Oct-09 04:01N 50°19' W 001°29'714.9
2019-Oct-09 03:30N 50°13' W 001°36'815.4
2019-Oct-09 03:00N 50°06' W 001°40'815.7
2019-Oct-09 02:30N 49°60' W 001°47'815.7
2019-Oct-09 02:00N 49°53' W 001°54'714.0
2019-Oct-09 01:30N 49°47' W 001°60'911.2
2019-Oct-09 00:43N 49°39' W 002°06'210.4
2019-Oct-09 00:30N 49°37' W 002°08'610.5
2019-Oct-08 23:59N 49°32' W 002°11'510.5
2019-Oct-08 23:30N 49°28' W 002°14'714.9
2019-Oct-08 23:00N 49°22' W 002°20'3214.9
2019-Oct-08 20:53N 48°53' W 002°41'611.1
2019-Oct-08 20:18N 48°48' W 002°35'12 0.8
2019-Oct-08 04:44N 48°51' W 002°17'311.4
2019-Oct-08 04:29N 48°53' W 002°20'812.2
2019-Oct-08 03:50N 49°01' W 002°23'1314.6
2019-Oct-08 02:58N 49°14' W 002°24'714.5
2019-Oct-08 02:30N 49°20' W 002°24'611.4
2019-Oct-08 02:00N 49°24' W 002°18'714.0
2019-Oct-08 01:30N 49°30' W 002°11'814.2
2019-Oct-08 00:56N 49°37' W 002°06'814.1
2019-Oct-08 00:24N 49°44' W 002°01'614.4
2019-Oct-08 00:01N 49°48' W 001°54'714.5
2019-Oct-07 23:30N 49°54' W 001°49'815.2
2019-Oct-07 23:01N 50°01' W 001°45'815.2
2019-Oct-07 22:30N 50°08' W 001°39'815.2
2019-Oct-07 22:00N 50°14' W 001°32'815.1
2019-Oct-07 21:30N 50°21' W 001°26'814.9
2019-Oct-07 20:58N 50°27' W 001°19'715.2
2019-Oct-07 20:30N 50°33' W 001°12'815.3
2019-Oct-07 20:01N 50°39' W 001°05'611.8
2019-Oct-07 19:30N 50°45' W 001°05'4 7.5
2019-Oct-07 19:00N 50°49' W 001°06'0 0.0
2019-Oct-07 18:30N 50°49' W 001°06'0 0.0
2019-Oct-07 18:00N 50°49' W 001°06'0 0.0
2019-Oct-07 17:30N 50°49' W 001°06'0 0.6
2019-Oct-07 17:01N 50°49' W 001°06'511.0
2019-Oct-07 16:30N 50°44' W 001°03'  
Track history (hours):
 
Tides and Currents Weather Stations Pressure Air Temp Water Temp Dewpoint Dewpoint Depression Visibility Wind Speed Wind Dir Waves Ship Positions

Bretagne

Operator: Brittany Ferries

Last reported at 2019-Oct-17 16:00 UTC. Time now 2019-Oct-17 16:23 UTC.
Position N 50°38' W 001°06'.

Length 151 m; beam 27 m.

Type: Ship. MMSI: 227286000.

Date/timePositionNaut miles runAvg speedWind from/ knotsBaromVisibWave heightAir tempDewpointWater temp
2019-Oct-17 16:00N 50°38' W 001°06'713.8
2019-Oct-17 15:30N 50°32' W 001°13'815.4
2019-Oct-17 14:59N 50°26' W 001°21'816.5
2019-Oct-17 14:30N 50°20' W 001°29'917.6
2019-Oct-17 14:00N 50°14' W 001°39'918.4
2019-Oct-17 13:31N 50°05' W 001°44'918.3
2019-Oct-17 13:00N 49°58' W 001°52'918.8
2019-Oct-17 12:30N 49°49' W 001°59'1018.2
2019-Oct-17 11:57N 49°40' W 002°02'919.3
2019-Oct-17 11:30N 49°31' W 001°60'21 2.5
2019-Oct-17 02:57N 49°15' W 002°22'512.6
2019-Oct-17 02:31N 49°20' W 002°20'815.8
2019-Oct-17 02:01N 49°27' W 002°14'1218.1
2019-Oct-17 01:20N 49°39' W 002°07'719.6
2019-Oct-17 01:00N 49°45' W 002°02'817.0
2019-Oct-17 00:30N 49°51' W 001°54'815.8
2019-Oct-17 00:01N 49°57' W 001°47'715.0
2019-Oct-16 23:31N 50°04' W 001°41'714.3
2019-Oct-16 23:00N 50°10' W 001°36'713.4
2019-Oct-16 22:30N 50°16' W 001°30'713.0
2019-Oct-16 22:00N 50°21' W 001°24'712.7
2019-Oct-16 21:27N 50°26' W 001°17'613.0
2019-Oct-16 21:00N 50°31' W 001°12'612.5
2019-Oct-16 20:30N 50°36' W 001°07'612.0
2019-Oct-16 20:01N 50°42' W 001°03'611.3
2019-Oct-16 19:30N 50°47' W 001°06'2 3.2
2019-Oct-16 18:58N 50°49' W 001°06'0 0.0
2019-Oct-16 18:28N 50°49' W 001°06'0 0.0
2019-Oct-16 17:59N 50°49' W 001°06'0 0.0
2019-Oct-16 17:29N 50°49' W 001°06'0 0.0
2019-Oct-16 16:59N 50°49' W 001°06'0 0.0
2019-Oct-16 16:28N 50°49' W 001°06'0 0.0
2019-Oct-16 15:58N 50°49' W 001°06'0 0.0
2019-Oct-16 15:28N 50°49' W 001°06'0 0.0
2019-Oct-16 14:59N 50°49' W 001°06'0 0.0
2019-Oct-16 14:28N 50°49' W 001°06'0 0.0
2019-Oct-16 13:58N 50°49' W 001°06'0 0.0
2019-Oct-16 13:28N 50°49' W 001°06'0 0.0
2019-Oct-16 12:59N 50°49' W 001°06'0 0.0
2019-Oct-16 12:28N 50°49' W 001°06'0 0.0
2019-Oct-16 11:58N 50°49' W 001°06'0 0.0
2019-Oct-16 11:28N 50°49' W 001°06'0 0.0
2019-Oct-16 10:56N 50°49' W 001°06'0 0.0
2019-Oct-16 10:28N 50°49' W 001°06'0 0.0
2019-Oct-16 09:59N 50°49' W 001°06'0 0.0
2019-Oct-16 09:28N 50°49' W 001°06'0 0.0
2019-Oct-16 08:56N 50°49' W 001°06'0 0.0
2019-Oct-16 08:29N 50°49' W 001°06'0 0.0
2019-Oct-16 07:58N 50°49' W 001°06'0 0.0
2019-Oct-16 07:29N 50°49' W 001°06'0 0.0
2019-Oct-16 06:59N 50°49' W 001°06'0 0.7
2019-Oct-16 06:31N 50°49' W 001°06'5 9.7
2019-Oct-16 06:01N 50°44' W 001°04'611.3
2019-Oct-16 05:31N 50°39' W 000°59'714.2
2019-Oct-16 05:00N 50°34' W 001°06'714.0
2019-Oct-16 04:30N 50°28' W 001°13'713.5
2019-Oct-16 04:00N 50°23' W 001°20'713.6
2019-Oct-16 03:30N 50°18' W 001°27'713.6
2019-Oct-16 03:01N 50°13' W 001°33'612.3
2019-Oct-16 02:30N 50°08' W 001°39'612.2
2019-Oct-16 02:01N 50°03' W 001°44'612.6
2019-Oct-16 01:30N 49°57' W 001°50'613.0
2019-Oct-16 01:00N 49°52' W 001°55'713.1
2019-Oct-16 00:30N 49°47' W 002°01'810.2
2019-Oct-15 23:45N 49°40' W 002°06'310.4
2019-Oct-15 23:29N 49°37' W 002°08'711.6
2019-Oct-15 22:54N 49°31' W 002°12'512.8
2019-Oct-15 22:30N 49°26' W 002°15'612.8
2019-Oct-15 22:00N 49°21' W 002°19'6 0.3
2019-Oct-15 03:12N 49°15' W 002°21'312.7
2019-Oct-15 02:57N 49°18' W 002°20'612.9
2019-Oct-15 02:30N 49°23' W 002°17'713.8
2019-Oct-15 02:00N 49°29' W 002°12'714.2
2019-Oct-15 01:29N 49°36' W 002°08'916.2
2019-Oct-15 00:57N 49°44' W 002°02'715.0
2019-Oct-15 00:30N 49°49' W 001°56'713.0
2019-Oct-15 00:01N 49°55' W 001°50'713.9
2019-Oct-14 23:30N 50°00' W 001°44'816.0
2019-Oct-14 23:01N 50°07' W 001°37'815.3
2019-Oct-14 22:31N 50°13' W 001°31'714.8
2019-Oct-14 22:01N 50°20' W 001°24'914.5
2019-Oct-14 21:23N 50°27' W 001°17'513.8
2019-Oct-14 21:00N 50°32' W 001°12'613.1
2019-Oct-14 20:31N 50°37' W 001°07'611.3
2019-Oct-14 20:01N 50°42' W 001°03'612.7
2019-Oct-14 19:30N 50°48' W 001°07'1 1.7
2019-Oct-14 18:58N 50°49' W 001°06'0 0.0
2019-Oct-14 18:28N 50°49' W 001°06'0 0.0
2019-Oct-14 17:58N 50°49' W 001°06'0 0.0
2019-Oct-14 17:30N 50°49' W 001°06'3 5.4
2019-Oct-14 17:00N 50°46' W 001°05'714.4
2019-Oct-14 16:30N 50°40' W 000°58'917.5
2019-Oct-14 16:00N 50°33' W 001°05'917.5
2019-Oct-14 15:30N 50°26' W 001°14'917.8
2019-Oct-14 15:01N 50°19' W 001°23'917.4
2019-Oct-14 14:30N 50°12' W 001°31'817.0
2019-Oct-14 14:00N 50°05' W 001°39'816.9
2019-Oct-14 13:30N 49°59' W 001°46'917.0
2019-Oct-14 13:00N 49°52' W 001°54'816.2
2019-Oct-14 12:30N 49°45' W 002°02'815.0
2019-Oct-14 12:00N 49°38' W 002°07'1018.0
2019-Oct-14 11:28N 49°29' W 002°12'919.0
2019-Oct-14 11:00N 49°22' W 002°18'7 0.9
2019-Oct-14 03:00N 49°15' W 002°21'611.9
2019-Oct-14 02:30N 49°20' W 002°19'612.7
2019-Oct-14 02:00N 49°26' W 002°13'813.7
2019-Oct-14 01:25N 49°33' W 002°09'615.3
2019-Oct-14 01:00N 49°39' W 002°06'917.0
2019-Oct-14 00:30N 49°47' W 002°00'714.7
2019-Oct-14 00:01N 49°53' W 001°53'816.0
2019-Oct-13 23:31N 49°58' W 001°45'816.6
2019-Oct-13 23:01N 50°05' W 001°38'816.0
2019-Oct-13 22:30N 50°12' W 001°32'815.5
2019-Oct-13 22:00N 50°19' W 001°25'815.0
2019-Oct-13 21:30N 50°25' W 001°18'714.4
2019-Oct-13 21:00N 50°31' W 001°13'713.7
2019-Oct-13 20:30N 50°37' W 001°07'612.0
2019-Oct-13 20:01N 50°43' W 001°03'612.1
2019-Oct-13 19:30N 50°48' W 001°07'1 1.6
2019-Oct-13 18:58N 50°49' W 001°06'0 0.0
2019-Oct-13 18:28N 50°49' W 001°06'0 0.0
2019-Oct-13 17:58N 50°49' W 001°06'0 0.0
2019-Oct-13 17:31N 50°49' W 001°06'3 6.2
2019-Oct-13 17:00N 50°46' W 001°05'713.4
2019-Oct-13 16:30N 50°40' W 000°60'918.5
2019-Oct-13 16:00N 50°32' W 001°08'1018.5
2019-Oct-13 15:29N 50°25' W 001°18'918.1
2019-Oct-13 15:00N 50°19' W 001°27'918.0
2019-Oct-13 14:30N 50°11' W 001°34'917.1
2019-Oct-13 14:01N 50°04' W 001°43'816.9
2019-Oct-13 13:30N 49°57' W 001°48'816.9
2019-Oct-13 13:01N 49°50' W 001°56'1215.0
2019-Oct-13 12:11N 49°40' W 002°06'416.6
2019-Oct-13 11:57N 49°36' W 002°09'818.0
2019-Oct-13 11:30N 49°29' W 002°13'918.7
2019-Oct-13 11:00N 49°20' W 002°20'5 0.7
2019-Oct-13 03:05N 49°15' W 002°21'311.7
2019-Oct-13 02:50N 49°18' W 002°20'411.5
2019-Oct-13 02:31N 49°21' W 002°18'712.6
2019-Oct-13 01:59N 49°27' W 002°14'713.3
2019-Oct-13 01:28N 49°34' W 002°10'1215.1
2019-Oct-13 00:39N 49°45' W 002°02'215.9
2019-Oct-13 00:30N 49°47' W 002°00'714.9
2019-Oct-13 00:00N 49°53' W 001°54'816.8
2019-Oct-12 23:31N 49°60' W 001°46'917.6
2019-Oct-12 23:01N 50°07' W 001°38'817.0
2019-Oct-12 22:31N 50°14' W 001°30'816.4
2019-Oct-12 22:01N 50°20' W 001°23'915.7
2019-Oct-12 21:27N 50°27' W 001°14'614.0
2019-Oct-12 21:00N 50°33' W 001°11'714.5
2019-Oct-12 20:30N 50°39' W 001°05'510.9
2019-Oct-12 20:01N 50°45' W 001°05'4 8.0
2019-Oct-12 19:31N 50°48' W 001°07'1 1.4
2019-Oct-12 18:58N 50°49' W 001°06'0 0.0
2019-Oct-12 18:28N 50°49' W 001°06'0 0.0
2019-Oct-12 17:58N 50°49' W 001°06'0 0.0
2019-Oct-12 17:30N 50°49' W 001°06'2 4.4
2019-Oct-12 17:00N 50°47' W 001°06'714.1
2019-Oct-12 16:30N 50°41' W 000°59'816.6
2019-Oct-12 16:01N 50°34' W 001°06'918.8
2019-Oct-12 15:31N 50°27' W 001°15'918.5
2019-Oct-12 15:01N 50°19' W 001°23'918.1
2019-Oct-12 14:30N 50°12' W 001°31'917.3
2019-Oct-12 14:00N 50°05' W 001°40'816.9
2019-Oct-12 13:31N 49°58' W 001°48'816.7
2019-Oct-12 13:00N 49°52' W 001°55'815.9
2019-Oct-12 12:30N 49°45' W 002°02'714.5
2019-Oct-12 12:00N 49°38' W 002°06'916.9
2019-Oct-12 11:27N 49°29' W 002°12'817.7
2019-Oct-12 11:00N 49°23' W 002°18'28 4.2
2019-Oct-12 04:25N 48°55' W 002°21'2516.0
2019-Oct-12 02:51N 49°20' W 002°30'411.1
2019-Oct-12 02:30N 49°23' W 002°27'814.8
2019-Oct-12 01:59N 49°25' W 002°15'712.7
2019-Oct-12 01:25N 49°31' W 002°10'512.4
2019-Oct-12 01:00N 49°36' W 002°06'914.5
2019-Oct-12 00:22N 49°45' W 002°02'617.8
2019-Oct-12 00:00N 49°50' W 001°57'917.0
2019-Oct-11 23:30N 49°57' W 001°48'817.0
2019-Oct-11 23:00N 50°03' W 001°39'816.3
2019-Oct-11 22:31N 50°09' W 001°31'815.7
2019-Oct-11 22:00N 50°16' W 001°24'815.2
2019-Oct-11 21:30N 50°23' W 001°19'815.5
2019-Oct-11 21:00N 50°29' W 001°13'816.2
2019-Oct-11 20:31N 50°37' W 001°07'713.7
2019-Oct-11 20:00N 50°42' W 001°02'713.5
2019-Oct-11 19:31N 50°48' W 001°07'1 1.6
2019-Oct-11 18:58N 50°49' W 001°06'0 0.0
2019-Oct-11 18:28N 50°49' W 001°06'0 0.0
2019-Oct-11 17:58N 50°49' W 001°06'0 0.0
2019-Oct-11 17:28N 50°49' W 001°06'1 2.0
2019-Oct-11 17:00N 50°48' W 001°07'713.0
2019-Oct-11 16:30N 50°43' W 001°00'815.6
2019-Oct-11 16:00N 50°35' W 001°01'1019.7
2019-Oct-11 15:30N 50°28' W 001°11'1019.2
2019-Oct-11 15:00N 50°20' W 001°20'918.5
2019-Oct-11 14:30N 50°12' W 001°28'917.8
2019-Oct-11 14:00N 50°06' W 001°38'917.8
2019-Oct-11 13:30N 49°59' W 001°47'917.5
2019-Oct-11 13:01N 49°52' W 001°54'816.6
2019-Oct-11 12:30N 49°45' W 002°02'814.9
2019-Oct-11 11:59N 49°38' W 002°07'917.0
2019-Oct-11 11:28N 49°30' W 002°12'818.0
2019-Oct-11 11:00N 49°23' W 002°17'1318.4
2019-Oct-11 10:18N 49°10' W 002°22'919.9
2019-Oct-11 09:52N 49°01' W 002°22'1119.6
2019-Oct-11 09:19N 48°51' W 002°16'10 2.8
2019-Oct-11 05:34N 48°43' W 002°07'217.7
2019-Oct-11 05:27N 48°45' W 002°08'3413.1
2019-Oct-11 02:53N 49°16' W 002°26'512.9
2019-Oct-11 02:30N 49°21' W 002°25'714.4
2019-Oct-11 02:00N 49°25' W 002°15'1516.4
2019-Oct-11 01:04N 49°39' W 002°06'718.3
2019-Oct-11 00:40N 49°46' W 002°02'318.3
2019-Oct-11 00:30N 49°48' W 001°58'917.6
2019-Oct-11 00:00N 49°54' W 001°48'816.8
2019-Oct-10 23:30N 49°60' W 001°39'815.5
2019-Oct-10 23:01N 50°07' W 001°35'815.2
2019-Oct-10 22:30N 50°14' W 001°30'714.7
2019-Oct-10 22:00N 50°20' W 001°24'814.3
2019-Oct-10 21:26N 50°27' W 001°18'614.2
2019-Oct-10 21:00N 50°32' W 001°12'714.1
2019-Oct-10 20:30N 50°38' W 001°06'611.5
2019-Oct-10 20:00N 50°44' W 001°03'611.2
2019-Oct-10 19:31N 50°49' W 001°07'1 1.6
2019-Oct-10 19:00N 50°49' W 001°06'0 0.0
2019-Oct-10 18:29N 50°49' W 001°06'0 0.0
2019-Oct-10 17:59N 50°49' W 001°06'0 0.0
2019-Oct-10 17:29N 50°49' W 001°06'1 1.8
2019-Oct-10 17:00N 50°48' W 001°07'611.5
2019-Oct-10 16:30N 50°43' W 001°03'714.7
2019-Oct-10 16:00N 50°37' W 001°07'1019.1
2019-Oct-10 15:30N 50°29' W 001°16'919.0
2019-Oct-10 15:00N 50°21' W 001°24'1019.2
2019-Oct-10 14:30N 50°12' W 001°32'918.8
2019-Oct-10 14:00N 50°05' W 001°41'918.4
2019-Oct-10 13:30N 49°57' W 001°49'918.2
2019-Oct-10 13:00N 49°50' W 001°57'1216.6
2019-Oct-10 12:16N 49°39' W 002°07'416.8
2019-Oct-10 12:00N 49°35' W 002°09'917.6
2019-Oct-10 11:30N 49°27' W 002°14'917.5
2019-Oct-10 11:00N 49°19' W 002°20'7 0.9
2019-Oct-10 03:08N 49°17' W 002°31'217.6
2019-Oct-10 03:00N 49°19' W 002°32'5 9.7
2019-Oct-10 02:30N 49°23' W 002°26'714.9
2019-Oct-10 02:00N 49°25' W 002°15'815.1
2019-Oct-10 01:27N 49°33' W 002°10'1316.8
2019-Oct-10 00:39N 49°45' W 002°00'319.8
2019-Oct-10 00:31N 49°46' W 001°57'917.3
2019-Oct-10 00:01N 49°55' W 001°53'917.1
2019-Oct-09 23:30N 50°03' W 001°52'917.1
2019-Oct-09 23:00N 50°12' W 001°50'917.5
2019-Oct-09 22:30N 50°20' W 001°48'917.4
2019-Oct-09 22:00N 50°29' W 001°44'1215.1
2019-Oct-09 21:14N 50°33' W 001°27'916.9
2019-Oct-09 20:42N 50°33' W 001°13'316.4
2019-Oct-09 20:30N 50°35' W 001°09'815.6
2019-Oct-09 20:00N 50°42' W 001°02'713.3
2019-Oct-09 19:30N 50°47' W 001°07'1 2.7
2019-Oct-09 19:00N 50°49' W 001°06'0 0.0
2019-Oct-09 18:29N 50°49' W 001°06'0 0.0
2019-Oct-09 17:59N 50°49' W 001°06'0 0.0
2019-Oct-09 17:29N 50°49' W 001°06'0 0.0
2019-Oct-09 16:59N 50°49' W 001°06'0 0.0
2019-Oct-09 16:29N 50°49' W 001°06'0 0.0
2019-Oct-09 15:59N 50°49' W 001°06'0 0.0
2019-Oct-09 15:29N 50°49' W 001°06'0 0.0
2019-Oct-09 14:59N 50°49' W 001°06'0 0.0
2019-Oct-09 14:29N 50°49' W 001°06'0 0.0
2019-Oct-09 13:59N 50°49' W 001°06'0 0.0
2019-Oct-09 13:29N 50°49' W 001°06'0 0.0
2019-Oct-09 12:59N 50°49' W 001°06'0 0.0
2019-Oct-09 12:29N 50°49' W 001°06'0 0.0
2019-Oct-09 11:59N 50°49' W 001°06'0 0.0
2019-Oct-09 11:29N 50°49' W 001°06'0 0.0
2019-Oct-09 10:59N 50°49' W 001°06'0 0.0
2019-Oct-09 10:29N 50°49' W 001°06'0 0.0
2019-Oct-09 09:59N 50°49' W 001°06'0 0.0
2019-Oct-09 09:29N 50°49' W 001°06'0 0.0
2019-Oct-09 08:59N 50°49' W 001°06'0 0.0
2019-Oct-09 08:29N 50°49' W 001°06'0 0.0
2019-Oct-09 07:59N 50°49' W 001°06'0 0.0
2019-Oct-09 07:29N 50°49' W 001°06'0 0.0
2019-Oct-09 06:59N 50°49' W 001°06'0 0.5
2019-Oct-09 06:31N 50°49' W 001°06'5 9.3
2019-Oct-09 06:00N 50°44' W 001°04'612.3
2019-Oct-09 05:30N 50°38' W 001°06'816.1
2019-Oct-09 05:00N 50°31' W 001°12'816.1
2019-Oct-09 04:30N 50°25' W 001°20'816.0
2019-Oct-09 04:01N 50°19' W 001°29'714.9
2019-Oct-09 03:30N 50°13' W 001°36'815.4
2019-Oct-09 03:00N 50°06' W 001°40'815.7
2019-Oct-09 02:30N 49°60' W 001°47'815.7
2019-Oct-09 02:00N 49°53' W 001°54'714.0
2019-Oct-09 01:30N 49°47' W 001°60'911.2
2019-Oct-09 00:43N 49°39' W 002°06'210.4
2019-Oct-09 00:30N 49°37' W 002°08'610.5
2019-Oct-08 23:59N 49°32' W 002°11'510.5
2019-Oct-08 23:30N 49°28' W 002°14'714.9
2019-Oct-08 23:00N 49°22' W 002°20'3214.9
2019-Oct-08 20:53N 48°53' W 002°41'611.1
2019-Oct-08 20:18N 48°48' W 002°35'12 0.8
2019-Oct-08 04:44N 48°51' W 002°17'311.4
2019-Oct-08 04:29N 48°53' W 002°20'812.2
2019-Oct-08 03:50N 49°01' W 002°23'1314.6
2019-Oct-08 02:58N 49°14' W 002°24'714.5
2019-Oct-08 02:30N 49°20' W 002°24'611.4
2019-Oct-08 02:00N 49°24' W 002°18'714.0
2019-Oct-08 01:30N 49°30' W 002°11'814.2
2019-Oct-08 00:56N 49°37' W 002°06'814.1
2019-Oct-08 00:24N 49°44' W 002°01'614.4
2019-Oct-08 00:01N 49°48' W 001°54'714.5
2019-Oct-07 23:30N 49°54' W 001°49'815.2
2019-Oct-07 23:01N 50°01' W 001°45'815.2
2019-Oct-07 22:30N 50°08' W 001°39'815.2
2019-Oct-07 22:00N 50°14' W 001°32'815.1
2019-Oct-07 21:30N 50°21' W 001°26'814.9
2019-Oct-07 20:58N 50°27' W 001°19'715.2
2019-Oct-07 20:30N 50°33' W 001°12'815.3
2019-Oct-07 20:01N 50°39' W 001°05'611.8
2019-Oct-07 19:30N 50°45' W 001°05'4 7.5
2019-Oct-07 19:00N 50°49' W 001°06'0 0.0
2019-Oct-07 18:30N 50°49' W 001°06'0 0.0
2019-Oct-07 18:00N 50°49' W 001°06'0 0.0
2019-Oct-07 17:30N 50°49' W 001°06'0 0.6
2019-Oct-07 17:01N 50°49' W 001°06'511.0
2019-Oct-07 16:30N 50°44' W 001°03'  

Dump ship's entire track history